createdAt,value
2024-04-18T00:00:33.423Z,97562.56
2024-04-18T00:03:00.032Z,97561.75
2024-04-18T00:05:26.556Z,97564.16
2024-04-18T00:07:53.017Z,97564.91
2024-04-18T00:10:19.507Z,97568.38
2024-04-18T00:12:46.040Z,97558.81
2024-04-18T00:15:12.567Z,97567.56
2024-04-18T00:17:39.086Z,97565.16
2024-04-18T00:20:06.203Z,97564.78
2024-04-18T00:22:32.691Z,97570.88
2024-04-18T00:24:59.217Z,97572.44
2024-04-18T00:27:25.822Z,97570.19
2024-04-18T00:29:52.300Z,97564.72
2024-04-18T00:32:18.901Z,97562.31
2024-04-18T00:34:45.432Z,97566.00
2024-04-18T00:37:11.896Z,97565.44
2024-04-18T00:39:38.443Z,97568.72
2024-04-18T00:42:05.027Z,97563.06
2024-04-18T00:44:32.091Z,97563.69
2024-04-18T00:46:58.611Z,97565.31
2024-04-18T00:49:26.725Z,97568.16
2024-04-18T00:51:55.265Z,97564.06
2024-04-18T00:54:22.516Z,97565.69
2024-04-18T00:56:49.088Z,97560.41
2024-04-18T00:59:16.608Z,97562.47
2024-04-18T01:01:46.610Z,97570.19
2024-04-18T01:04:13.255Z,97564.72
2024-04-18T01:06:39.915Z,97574.28
2024-04-18T01:09:06.419Z,97569.00
2024-04-18T01:11:33.500Z,97572.25
2024-04-18T01:14:10.420Z,97566.78
2024-04-18T01:16:36.852Z,97568.84
2024-04-18T01:19:05.300Z,97572.56
2024-04-18T01:21:32.003Z,97573.59
2024-04-18T01:23:58.459Z,97575.03
2024-04-18T01:26:24.960Z,97575.25
2024-04-18T01:28:51.435Z,97576.31
2024-04-18T01:31:17.899Z,97574.31
2024-04-18T01:33:44.455Z,97577.19
2024-04-18T01:36:11.076Z,97575.97
2024-04-18T01:38:37.512Z,97580.25
2024-04-18T01:41:04.050Z,97572.94
2024-04-18T01:43:30.886Z,97578.84
2024-04-18T01:45:57.320Z,97578.63
2024-04-18T01:48:23.899Z,97572.34
2024-04-18T01:50:50.369Z,97572.72
2024-04-18T01:53:17.011Z,97574.13
2024-04-18T01:55:44.379Z,97571.91
2024-04-18T01:58:10.912Z,97571.47
2024-04-18T02:00:43.913Z,97573.84
2024-04-18T02:03:10.543Z,97567.53
2024-04-18T02:05:37.152Z,97574.41
2024-04-18T02:08:04.000Z,97574.56
2024-04-18T02:10:30.440Z,97578.97
2024-04-18T02:12:56.922Z,97576.50
2024-04-18T02:15:26.850Z,97575.63
2024-04-18T02:17:54.001Z,97577.19
2024-04-18T02:20:21.212Z,97589.53
2024-04-18T02:22:47.919Z,97586.22
2024-04-18T02:25:14.566Z,97588.78
2024-04-18T02:27:43.400Z,97586.34
2024-04-18T02:30:11.835Z,97589.59
2024-04-18T02:32:39.084Z,97589.25
2024-04-18T02:35:06.040Z,97593.75
2024-04-18T02:37:32.701Z,97587.91
2024-04-18T02:39:59.180Z,97596.06
2024-04-18T02:42:26.377Z,97595.03
2024-04-18T02:44:53.406Z,97591.41
2024-04-18T02:47:19.942Z,97591.41
2024-04-18T02:49:46.472Z,97592.84
2024-04-18T02:52:12.949Z,97586.94
2024-04-18T02:54:39.539Z,97592.66
2024-04-18T02:57:06.038Z,97593.28
2024-04-18T02:59:32.589Z,97591.50
2024-04-18T03:01:59.088Z,97598.47
2024-04-18T03:04:25.659Z,97602.97
2024-04-18T03:06:52.213Z,97593.88
2024-04-18T03:09:18.698Z,97594.91
2024-04-18T03:11:48.503Z,97596.78
2024-04-18T03:14:15.096Z,97596.00
2024-04-18T03:16:41.531Z,97598.91
2024-04-18T03:19:14.002Z,97603.78
2024-04-18T03:21:40.540Z,97601.16
2024-04-18T03:24:20.142Z,97600.53
2024-04-18T03:26:47.455Z,97607.78
2024-04-18T03:29:14.195Z,97603.69
2024-04-18T03:31:46.415Z,97606.91
2024-04-18T03:34:12.940Z,97614.41
2024-04-18T03:36:42.565Z,97607.25
2024-04-18T03:39:09.631Z,97617.38
2024-04-18T03:41:37.825Z,97618.78
2024-04-18T03:44:06.443Z,97620.56
2024-04-18T03:46:32.859Z,97618.31
2024-04-18T03:48:59.424Z,97620.56
2024-04-18T03:51:25.942Z,97611.00
2024-04-18T03:53:52.471Z,97626.47
2024-04-18T03:56:19.019Z,97628.47
2024-04-18T03:58:45.419Z,97628.88
2024-04-18T04:01:12.024Z,97632.31
2024-04-18T04:03:38.708Z,97633.09
2024-04-18T04:06:05.603Z,97640.00
2024-04-18T04:08:32.071Z,97637.78
2024-04-18T04:10:58.606Z,97634.34
2024-04-18T04:13:25.080Z,97648.16
2024-04-18T04:15:51.900Z,97653.00
2024-04-18T04:18:18.850Z,97652.09
2024-04-18T04:20:45.646Z,97652.69
2024-04-18T04:23:12.116Z,97656.53
2024-04-18T04:25:38.648Z,97660.16
2024-04-18T04:28:05.141Z,97655.31
2024-04-18T04:30:31.616Z,97660.59
2024-04-18T04:32:58.097Z,97658.59
2024-04-18T04:35:24.613Z,97674.63
2024-04-18T04:37:51.039Z,97676.44
2024-04-18T04:40:17.556Z,97680.09
2024-04-18T04:42:44.212Z,97681.97
2024-04-18T04:45:10.791Z,97689.06
2024-04-18T04:47:37.316Z,97692.72
2024-04-18T04:50:04.981Z,97702.63
2024-04-18T04:52:31.477Z,97703.78
2024-04-18T04:54:57.938Z,97701.75
2024-04-18T04:57:24.469Z,97700.00
2024-04-18T04:59:50.986Z,97711.72
2024-04-18T05:02:17.586Z,97708.88
2024-04-18T05:04:44.101Z,97715.59
2024-04-18T05:07:10.601Z,97710.69
2024-04-18T05:09:37.134Z,97722.00
2024-04-18T05:12:04.058Z,97733.63
2024-04-18T05:14:30.511Z,97731.19
2024-04-18T05:16:57.026Z,97732.25
2024-04-18T05:19:23.576Z,97741.16
2024-04-18T05:21:51.191Z,97735.88
2024-04-18T05:24:17.821Z,97739.91
2024-04-18T05:26:44.360Z,97740.00
2024-04-18T05:29:10.770Z,97747.97
2024-04-18T05:31:39.891Z,97749.94
2024-04-18T05:34:08.179Z,97752.31
2024-04-18T05:36:34.853Z,97751.50
2024-04-18T05:39:01.429Z,97757.97
2024-04-18T05:41:27.839Z,97755.13
2024-04-18T05:43:54.330Z,97757.66
2024-04-18T05:46:20.799Z,97765.94
2024-04-18T05:48:47.367Z,97776.03
2024-04-18T05:51:13.998Z,97772.28
2024-04-18T05:53:41.310Z,97777.81
2024-04-18T05:56:07.993Z,97779.63
2024-04-18T05:58:34.438Z,97784.72
2024-04-18T06:01:01.000Z,97783.38
2024-04-18T06:03:27.543Z,97786.88
2024-04-18T06:05:54.152Z,97788.59
2024-04-18T06:08:20.614Z,97785.75
2024-04-18T06:10:47.297Z,97783.75
2024-04-18T06:13:13.771Z,97792.81
2024-04-18T06:15:43.549Z,97790.78
2024-04-18T06:18:10.386Z,97797.03
2024-04-18T06:20:42.548Z,97796.41
2024-04-18T06:23:09.807Z,97798.66
2024-04-18T06:25:36.960Z,97802.75
2024-04-18T06:28:07.587Z,97803.00
2024-04-18T06:30:34.251Z,97806.88
2024-04-18T06:33:01.042Z,97806.41
2024-04-18T06:35:27.599Z,97809.91
2024-04-18T06:37:54.070Z,97822.63
2024-04-18T06:40:20.528Z,97814.63
2024-04-18T06:42:47.052Z,97813.13
2024-04-18T06:45:13.612Z,97818.22
2024-04-18T06:47:40.223Z,97813.53
2024-04-18T06:50:06.842Z,97823.75
2024-04-18T06:52:33.801Z,97817.44
2024-04-18T06:55:00.409Z,97830.41
2024-04-18T06:57:26.964Z,97826.34
2024-04-18T06:59:53.411Z,97829.47
2024-04-18T07:02:19.936Z,97827.56
2024-04-18T07:04:46.942Z,97836.25
2024-04-18T07:07:14.818Z,97836.25
2024-04-18T07:09:41.225Z,97843.75
2024-04-18T07:12:08.906Z,97845.03
2024-04-18T07:14:35.361Z,97843.19
2024-04-18T07:17:04.891Z,97839.25
2024-04-18T07:19:31.538Z,97836.25
2024-04-18T07:21:58.013Z,97836.72
2024-04-18T07:24:24.526Z,97844.47
2024-04-18T07:26:53.297Z,97851.28
2024-04-18T07:29:21.215Z,97850.28
2024-04-18T07:31:47.735Z,97860.91
2024-04-18T07:34:15.165Z,97860.13
2024-04-18T07:36:41.792Z,97870.50
2024-04-18T07:39:08.284Z,97867.25
2024-04-18T07:41:34.748Z,97872.72
2024-04-18T07:44:01.171Z,97881.94
2024-04-18T07:46:27.618Z,97882.94
2024-04-18T07:48:54.091Z,97890.50
2024-04-18T07:51:20.574Z,97886.47
2024-04-18T07:53:47.048Z,97894.25
2024-04-18T07:56:13.722Z,97892.03
2024-04-18T07:58:40.855Z,97890.19
2024-04-18T08:01:09.033Z,97893.25
2024-04-18T08:03:39.126Z,97898.34
2024-04-18T08:06:09.732Z,97902.63
2024-04-18T08:08:40.868Z,97912.00
2024-04-18T08:11:27.294Z,97909.56
2024-04-18T08:13:58.465Z,97912.66
2024-04-18T08:16:27.692Z,97916.75
2024-04-18T08:18:54.214Z,97928.56
2024-04-18T08:21:20.650Z,97919.53
2024-04-18T08:23:47.113Z,97919.19
2024-04-18T08:26:13.558Z,97921.22
2024-04-18T08:28:40.123Z,97922.66
2024-04-18T08:31:06.586Z,97925.53
2024-04-18T08:33:33.072Z,97919.97
2024-04-18T08:35:59.586Z,97921.63
2024-04-18T08:38:26.075Z,97927.13
2024-04-18T08:40:53.096Z,97928.94
2024-04-18T08:43:20.078Z,97925.84
2024-04-18T08:45:47.351Z,97929.75
2024-04-18T08:48:14.689Z,97932.69
2024-04-18T08:50:46.379Z,97925.38
2024-04-18T08:53:13.017Z,97934.69
2024-04-18T08:55:46.747Z,97935.84
2024-04-18T08:58:13.762Z,97944.53
2024-04-18T09:00:45.426Z,97932.28
2024-04-18T09:03:12.111Z,97941.94
2024-04-18T09:05:39.636Z,97945.88
2024-04-18T09:08:06.524Z,97942.75
2024-04-18T09:10:33.685Z,97948.09
2024-04-18T09:13:03.977Z,97947.38
2024-04-18T09:15:33.372Z,97950.78
2024-04-18T09:18:04.983Z,97955.66
2024-04-18T09:20:33.256Z,97952.28
2024-04-18T09:22:59.736Z,97952.56
2024-04-18T09:25:26.439Z,97950.66
2024-04-18T09:27:53.157Z,97953.00
2024-04-18T09:30:19.676Z,97955.78
2024-04-18T09:32:48.453Z,97950.16
2024-04-18T09:35:17.869Z,97947.16
2024-04-18T09:37:50.034Z,97953.97
2024-04-18T09:40:26.582Z,97959.38
2024-04-18T09:43:22.351Z,97959.69
2024-04-18T09:45:53.485Z,97969.16
2024-04-18T09:48:21.551Z,97966.50
2024-04-18T09:50:49.530Z,97958.84
2024-04-18T09:53:16.136Z,97966.28
2024-04-18T09:55:43.037Z,97980.03
2024-04-18T09:58:10.818Z,97973.13
2024-04-18T10:00:38.057Z,97972.72
2024-04-18T10:03:05.566Z,97979.66
2024-04-18T10:05:32.112Z,97981.09
2024-04-18T10:08:00.896Z,97975.53
2024-04-18T10:10:29.267Z,97973.28
2024-04-18T10:12:55.904Z,97977.53
2024-04-18T10:15:22.493Z,97977.38
2024-04-18T10:17:49.055Z,97975.72
2024-04-18T10:20:15.834Z,97984.34
2024-04-18T10:22:47.393Z,97979.22
2024-04-18T10:25:20.069Z,97976.53
2024-04-18T10:27:46.630Z,97973.91
2024-04-18T10:30:16.448Z,97968.06
2024-04-18T10:32:45.602Z,97963.97
2024-04-18T10:35:12.265Z,97973.31
2024-04-18T10:37:48.786Z,97980.34
2024-04-18T10:40:16.283Z,97975.97
2024-04-18T10:42:42.672Z,97981.53
2024-04-18T10:45:09.438Z,97980.84
2024-04-18T10:47:36.683Z,97987.75
2024-04-18T10:50:03.271Z,97985.53
2024-04-18T10:52:29.803Z,97980.25
2024-04-18T10:54:56.271Z,97980.31
2024-04-18T10:57:22.840Z,97983.75
2024-04-18T10:59:49.446Z,97983.34
2024-04-18T11:02:15.979Z,97982.69
2024-04-18T11:04:42.592Z,97990.50
2024-04-18T11:07:09.075Z,97981.69
2024-04-18T11:09:35.564Z,97980.03
2024-04-18T11:12:03.026Z,97975.00
2024-04-18T11:14:29.643Z,97976.09
2024-04-18T11:16:57.458Z,97964.56
2024-04-18T11:19:24.201Z,97967.16
2024-04-18T11:21:51.188Z,97965.19
2024-04-18T11:24:18.411Z,97962.22
2024-04-18T11:26:45.084Z,97966.91
2024-04-18T11:29:11.590Z,97962.19
2024-04-18T11:31:38.071Z,97967.38
2024-04-18T11:34:04.678Z,97968.78
2024-04-18T11:36:31.171Z,97969.31
2024-04-18T11:39:03.975Z,97970.25
2024-04-18T11:41:31.074Z,97964.44
2024-04-18T11:43:57.713Z,97971.16
2024-04-18T11:46:24.179Z,97968.97
2024-04-18T11:48:50.795Z,97965.41
2024-04-18T11:51:17.278Z,97961.41
2024-04-18T11:53:43.779Z,97965.78
2024-04-18T11:56:10.270Z,97960.06
2024-04-18T11:58:36.720Z,97972.22
2024-04-18T12:01:03.361Z,97972.97
2024-04-18T12:03:29.981Z,97962.22
2024-04-18T12:05:56.893Z,97966.94
2024-04-18T12:08:24.309Z,97960.66
2024-04-18T12:10:50.743Z,97969.78
2024-04-18T12:13:20.213Z,97964.34
2024-04-18T12:15:46.768Z,97982.03
2024-04-18T12:18:13.288Z,97988.94
2024-04-18T12:20:39.766Z,97984.41
2024-04-18T12:23:06.226Z,97995.00
2024-04-18T12:25:32.720Z,97984.09
2024-04-18T12:27:59.132Z,97988.94
2024-04-18T12:30:28.154Z,97996.34
2024-04-18T12:32:56.033Z,98000.03
2024-04-18T12:35:22.710Z,97992.81
2024-04-18T12:37:49.172Z,97993.13
2024-04-18T12:40:15.626Z,97994.53
2024-04-18T12:42:42.287Z,97999.94
2024-04-18T12:45:08.863Z,98000.25
2024-04-18T12:47:35.563Z,98010.03
2024-04-18T12:50:02.323Z,98003.88
2024-04-18T12:52:28.858Z,98001.75
2024-04-18T12:54:55.334Z,98001.06
2024-04-18T12:57:21.861Z,97997.56
2024-04-18T12:59:48.333Z,97995.69
2024-04-18T13:02:14.851Z,98006.34
2024-04-18T13:04:41.348Z,98007.16
2024-04-18T13:07:07.848Z,97989.09
2024-04-18T13:09:34.662Z,98004.91
2024-04-18T13:12:02.382Z,98000.88
2024-04-18T13:14:28.857Z,98002.28
2024-04-18T13:16:55.419Z,98004.59
2024-04-18T13:19:23.240Z,97988.88
2024-04-18T13:21:49.661Z,97998.47
2024-04-18T13:24:16.148Z,98009.72
2024-04-18T13:26:42.668Z,98001.34
2024-04-18T13:29:09.144Z,97987.63
2024-04-18T13:31:35.632Z,97990.44
2024-04-18T13:34:02.180Z,97982.06
2024-04-18T13:36:28.773Z,97983.41
2024-04-18T13:38:55.309Z,97982.59
2024-04-18T13:41:21.899Z,97986.91
2024-04-18T13:43:48.382Z,97985.56
2024-04-18T13:46:14.849Z,97986.59
2024-04-18T13:48:41.381Z,97985.53
2024-04-18T13:51:07.902Z,97987.31
2024-04-18T13:53:34.654Z,97993.41
2024-04-18T13:56:01.114Z,97987.63
2024-04-18T13:58:27.614Z,97985.25
2024-04-18T14:00:54.095Z,97982.13
2024-04-18T14:03:20.743Z,97984.94
2024-04-18T14:05:47.435Z,97982.25
2024-04-18T14:08:14.047Z,97985.28
2024-04-18T14:10:40.611Z,97990.09
2024-04-18T14:13:07.144Z,97980.56
2024-04-18T14:15:33.664Z,97979.19
2024-04-18T14:18:00.196Z,97991.28
2024-04-18T14:20:26.702Z,97996.75
2024-04-18T14:22:53.165Z,98000.19
2024-04-18T14:25:19.700Z,98005.69
2024-04-18T14:27:46.256Z,97996.28
2024-04-18T14:30:12.797Z,98003.56
2024-04-18T14:32:39.344Z,98003.69
2024-04-18T14:35:06.415Z,98001.59
2024-04-18T14:37:33.076Z,98009.03
2024-04-18T14:39:59.541Z,98011.38
2024-04-18T14:42:26.102Z,98016.41
2024-04-18T14:44:52.631Z,98021.88
2024-04-18T14:47:19.856Z,98035.88
2024-04-18T14:49:46.285Z,98050.00
2024-04-18T14:52:12.802Z,98054.13
2024-04-18T14:54:39.304Z,98054.16
2024-04-18T14:57:05.830Z,98058.78
2024-04-18T14:59:32.328Z,98055.56
2024-04-18T15:01:58.791Z,98058.28
2024-04-18T15:04:26.671Z,98061.13
2024-04-18T15:06:54.745Z,98064.81
2024-04-18T15:09:21.177Z,98066.84
2024-04-18T15:11:47.714Z,98060.13
2024-04-18T15:14:14.133Z,98066.88
2024-04-18T15:16:40.616Z,98063.13
2024-04-18T15:19:07.143Z,98064.28
2024-04-18T15:21:33.798Z,98057.13
2024-04-18T15:24:00.289Z,98051.38
2024-04-18T15:26:26.731Z,98059.50
2024-04-18T15:28:53.211Z,98061.13
2024-04-18T15:31:19.670Z,98066.88
2024-04-18T15:33:46.179Z,98061.72
2024-04-18T15:36:12.729Z,98066.63
2024-04-18T15:38:39.282Z,98058.53
2024-04-18T15:41:05.763Z,98064.63
2024-04-18T15:43:32.186Z,98059.00
2024-04-18T15:46:02.490Z,98065.97
2024-04-18T15:48:29.039Z,98061.75
2024-04-18T15:50:58.949Z,98070.75
2024-04-18T15:53:25.498Z,98063.72
2024-04-18T15:55:51.981Z,98074.53
2024-04-18T15:58:21.683Z,98067.38
2024-04-18T16:00:49.449Z,98076.63
2024-04-18T16:03:16.045Z,98076.41
2024-04-18T16:05:43.307Z,98088.97
2024-04-18T16:08:11.450Z,98076.38
2024-04-18T16:10:38.132Z,98089.78
2024-04-18T16:13:04.697Z,98087.72
2024-04-18T16:15:31.170Z,98092.50
2024-04-18T16:17:58.589Z,98102.59
2024-04-18T16:20:25.196Z,98105.66
2024-04-18T16:22:51.671Z,98108.44
2024-04-18T16:25:18.105Z,98099.56
2024-04-18T16:27:44.669Z,98114.09
2024-04-18T16:30:11.491Z,98105.56
2024-04-18T16:32:38.103Z,98113.44
2024-04-18T16:35:04.821Z,98113.28
2024-04-18T16:37:31.409Z,98116.06
2024-04-18T16:39:57.863Z,98116.91
2024-04-18T16:42:24.431Z,98116.00
2024-04-18T16:44:50.998Z,98110.56
2024-04-18T16:47:17.476Z,98117.66
2024-04-18T16:49:43.963Z,98116.03
2024-04-18T16:52:11.300Z,98116.66
2024-04-18T16:54:37.904Z,98117.13
2024-04-18T16:57:04.615Z,98123.25
2024-04-18T16:59:31.131Z,98132.88
2024-04-18T17:01:57.631Z,98131.69
2024-04-18T17:04:24.229Z,98128.69
2024-04-18T17:06:50.808Z,98134.75
2024-04-18T17:09:17.435Z,98136.84
2024-04-18T17:11:44.326Z,98135.69
2024-04-18T17:14:10.804Z,98145.63
2024-04-18T17:16:37.236Z,98143.81
2024-04-18T17:19:03.778Z,98143.94
2024-04-18T17:21:30.417Z,98146.56
2024-04-18T17:23:56.958Z,98148.41
2024-04-18T17:26:25.805Z,98144.34
2024-04-18T17:28:54.465Z,98149.88
2024-04-18T17:31:20.932Z,98146.84
2024-04-18T17:33:47.428Z,98153.22
2024-04-18T17:36:13.957Z,98151.34
2024-04-18T17:38:42.505Z,98154.00
2024-04-18T17:41:09.238Z,98149.50
2024-04-18T17:43:35.791Z,98154.19
2024-04-18T17:46:02.235Z,98175.63
2024-04-18T17:48:28.819Z,98173.66
2024-04-18T17:50:55.431Z,98170.00
2024-04-18T17:53:21.936Z,98182.66
2024-04-18T17:55:49.457Z,98179.53
2024-04-18T17:58:17.081Z,98189.31
2024-04-18T18:00:43.588Z,98186.81
2024-04-18T18:03:10.171Z,98192.72
2024-04-18T18:05:36.782Z,98192.03
2024-04-18T18:08:03.396Z,98191.59
2024-04-18T18:10:29.828Z,98193.56
2024-04-18T18:12:56.413Z,98199.06
2024-04-18T18:15:23.004Z,98211.00
2024-04-18T18:17:49.663Z,98203.06
2024-04-18T18:20:16.304Z,98211.84
2024-04-18T18:22:42.792Z,98219.63
2024-04-18T18:25:09.262Z,98220.66
2024-04-18T18:27:35.867Z,98223.03
2024-04-18T18:30:02.396Z,98219.09
2024-04-18T18:32:28.869Z,98226.25
2024-04-18T18:34:55.420Z,98223.09
2024-04-18T18:37:21.921Z,98216.94
2024-04-18T18:39:48.438Z,98217.09
2024-04-18T18:42:14.963Z,98221.69
2024-04-18T18:44:41.484Z,98220.06
2024-04-18T18:47:08.034Z,98226.63
2024-04-18T18:49:34.544Z,98230.94
2024-04-18T18:52:01.047Z,98233.75
2024-04-18T18:54:27.727Z,98233.13
2024-04-18T18:56:54.206Z,98222.69
2024-04-18T18:59:20.660Z,98224.53
2024-04-18T19:01:47.185Z,98228.19
2024-04-18T19:04:15.036Z,98236.16
2024-04-18T19:06:41.837Z,98246.75
2024-04-18T19:09:08.371Z,98243.66
2024-04-18T19:11:34.916Z,98247.91
2024-04-18T19:14:02.076Z,98252.59
2024-04-18T19:16:28.563Z,98245.84
2024-04-18T19:18:55.091Z,98247.41
2024-04-18T19:21:21.656Z,98253.91
2024-04-18T19:23:48.119Z,98252.44
2024-04-18T19:26:14.643Z,98248.09
2024-04-18T19:28:42.091Z,98245.41
2024-04-18T19:31:09.894Z,98250.41
2024-04-18T19:33:37.033Z,98253.00
2024-04-18T19:36:03.832Z,98256.59
2024-04-18T19:38:30.289Z,98263.09
2024-04-18T19:41:03.687Z,98269.59
2024-04-18T19:43:30.166Z,98260.09
2024-04-18T19:46:00.366Z,98255.38
2024-04-18T19:48:28.390Z,98257.38
2024-04-18T19:50:55.428Z,98257.31
2024-04-18T19:53:23.006Z,98269.09
2024-04-18T19:55:50.017Z,98265.63
2024-04-18T19:58:19.635Z,98267.25
2024-04-18T20:00:46.370Z,98271.19
2024-04-18T20:03:13.245Z,98272.25
2024-04-18T20:05:40.569Z,98268.59
2024-04-18T20:08:07.840Z,98260.47
2024-04-18T20:10:35.072Z,98268.22
2024-04-18T20:13:01.873Z,98263.75
2024-04-18T20:17:55.373Z,98268.59
2024-04-18T20:20:21.992Z,98267.53
2024-04-18T20:22:48.455Z,98273.38
2024-04-18T20:25:14.978Z,98278.34
2024-04-18T20:27:41.619Z,98271.16
2024-04-18T20:30:09.077Z,98279.22
2024-04-18T20:32:35.701Z,98274.16
2024-04-18T20:35:02.360Z,98283.47
2024-04-18T20:37:28.825Z,98279.56
2024-04-18T20:39:58.631Z,98289.88
2024-04-18T20:42:26.147Z,98293.06
2024-04-18T20:44:52.603Z,98290.75
2024-04-18T20:47:19.139Z,98283.38
2024-04-18T20:49:45.634Z,98290.22
2024-04-18T20:52:12.148Z,98282.66
2024-04-18T20:54:38.898Z,98282.84
2024-04-18T20:57:05.750Z,98277.72
2024-04-18T20:59:32.345Z,98273.63
2024-04-18T21:01:58.973Z,98270.53
2024-04-18T21:04:25.695Z,98264.13
2024-04-18T21:06:52.416Z,98268.13
2024-04-18T21:09:19.170Z,98265.84
2024-04-18T21:11:45.854Z,98272.13
2024-04-18T21:14:12.468Z,98255.63
2024-04-18T21:16:39.116Z,98267.66
2024-04-18T21:19:06.259Z,98264.84
2024-04-18T21:21:33.004Z,98265.47
2024-04-18T21:23:59.626Z,98265.94
2024-04-18T21:26:26.223Z,98275.31
2024-04-18T21:28:52.812Z,98273.31
2024-04-18T21:31:19.508Z,98270.34
2024-04-18T21:33:46.278Z,98266.34
2024-04-18T21:36:13.066Z,98267.78
2024-04-18T21:38:50.806Z,98261.31
2024-04-18T21:41:25.457Z,98261.13
2024-04-18T21:43:55.927Z,98265.59
2024-04-18T21:46:22.713Z,98263.31
2024-04-18T21:48:49.835Z,98261.88
2024-04-18T21:51:16.707Z,98263.69
2024-04-18T21:53:43.345Z,98265.69
2024-04-18T21:56:10.783Z,98266.50
2024-04-18T21:58:37.562Z,98261.59
2024-04-18T22:01:04.701Z,98263.59
2024-04-18T22:03:31.727Z,98262.09
2024-04-18T22:05:58.420Z,98256.00
2024-04-18T22:08:25.076Z,98260.66
2024-04-18T22:10:51.856Z,98256.00
2024-04-18T22:13:18.612Z,98254.66
2024-04-18T22:15:45.345Z,98254.13
2024-04-18T22:18:12.227Z,98254.56
2024-04-18T22:20:39.077Z,98249.72
2024-04-18T22:23:05.667Z,98241.25
2024-04-18T22:25:32.302Z,98250.28
2024-04-18T22:27:59.076Z,98246.47
2024-04-18T22:30:25.713Z,98256.31
2024-04-18T22:32:52.430Z,98255.31
2024-04-18T22:35:19.213Z,98251.84
2024-04-18T22:37:45.898Z,98256.13
2024-04-18T22:40:12.627Z,98248.19
2024-04-18T22:42:39.259Z,98251.47
2024-04-18T22:45:06.185Z,98251.47
2024-04-18T22:47:32.935Z,98258.78
2024-04-18T22:49:59.592Z,98256.13
2024-04-18T22:52:26.181Z,98257.75
2024-04-18T22:54:52.853Z,98261.22
2024-04-18T22:57:19.534Z,98251.84
2024-04-18T22:59:46.205Z,98250.47
2024-04-18T23:02:13.812Z,98250.91
2024-04-18T23:04:40.459Z,98255.84
2024-04-18T23:07:08.957Z,98248.19
2024-04-18T23:09:35.844Z,98254.94
2024-04-18T23:12:02.999Z,98248.44
2024-04-18T23:14:29.779Z,98250.09
2024-04-18T23:16:56.414Z,98249.91
2024-04-18T23:19:23.058Z,98248.28
2024-04-18T23:21:49.793Z,98244.63
2024-04-18T23:24:16.414Z,98244.06
2024-04-18T23:26:43.041Z,98246.13
2024-04-18T23:29:09.787Z,98229.88
2024-04-18T23:31:36.418Z,98232.38
2024-04-18T23:34:03.077Z,98232.19
2024-04-18T23:36:29.751Z,98223.44
2024-04-18T23:38:56.427Z,98225.59
2024-04-18T23:41:23.115Z,98221.31
2024-04-18T23:43:49.752Z,98221.31
2024-04-18T23:46:16.433Z,98217.22
2024-04-18T23:48:43.305Z,98218.59
2024-04-18T23:51:10.123Z,98209.19
2024-04-18T23:53:36.782Z,98207.31
2024-04-18T23:56:03.550Z,98209.47
2024-04-18T23:58:30.971Z,98206.38
